This is the latest recevied weather packets stored in our database for station/object EA7RX-3. If no packets are shown the sender has not sent any weather packets the latest 10 day(s).
| Time | Temp. | Humidity | Pressure | Rain* | Wind** | Luminosity | Snow |
|---|---|---|---|---|---|---|---|
| 1777565301 | 22.78° C | 57% | 1013.1 hPa | - | - | - | - |
| 1777564700 | 22.22° C | 61% | 1013.2 hPa | - | - | - | - |
| 1777564101 | 21.11° C | 63% | 1013.5 hPa | - | - | - | - |
| 1777563500 | 20.56° C | 63% | 1013.6 hPa | - | - | - | - |
| 1777562901 | 21.67° C | 61% | 1013.4 hPa | - | - | - | - |
| 1777562301 | 21.11° C | 65% | 1013.6 hPa | - | - | - | - |
| 1777561700 | 20.56° C | 64% | 1013.7 hPa | - | - | - | - |
| 1777561100 | 21.11° C | 63% | 1013.6 hPa | - | - | - | - |
| 1777560500 | 21.11° C | 63% | 1013.8 hPa | - | - | - | - |
| 1777559901 | 21.67° C | 63% | 1013.6 hPa | - | - | - | - |
| 1777559300 | 20.56° C | 65% | 1014 hPa | - | - | - | - |
| 1777558701 | 21.67° C | 63% | 1013.8 hPa | - | - | - | - |
| 1777558101 | 21.11° C | 66% | 1013.9 hPa | - | - | - | - |
| 1777557500 | 20° C | 69% | 1014.3 hPa | - | - | - | - |
| 1777556901 | 20° C | 70% | 1014.1 hPa | - | - | - | - |
| 1777556300 | 19.44° C | 73% | 1014.4 hPa | - | - | - | - |
| 1777555700 | 18.89° C | 76% | 1014.6 hPa | - | - | - | - |
| 1777555100 | 18.89° C | 77% | 1014.6 hPa | - | - | - | - |
| 1777554500 | 18.89° C | 75% | 1014.6 hPa | - | - | - | - |
| 1777553900 | 18.89° C | 75% | 1014.5 hPa | - | - | - | - |
| 1777553302 | 19.44° C | 70% | 1014.4 hPa | - | - | - | - |
| 1777552700 | 20° C | 72% | 1014.2 hPa | - | - | - | - |
| 1777552101 | 19.44° C | 72% | 1014.1 hPa | - | - | - | - |
| 1777551500 | 18.89° C | 75% | 1014.4 hPa | - | - | - | - |
| 1777550900 | 18.89° C | 75% | 1014.3 hPa | - | - | - | - |
* Rain since midnight (hover to see other rain measurements)
** Current wind speed in m/s (hover to see current wind gust speed)